createdAt,value
2018-10-19T00:01:22.110Z,21.33
2018-10-19T00:03:50.377Z,25.50
2018-10-19T00:06:18.623Z,25.50
2018-10-19T00:08:46.910Z,20.50
2018-10-19T00:11:15.350Z,23.40
2018-10-19T00:13:43.473Z,30.80
2018-10-19T00:16:11.736Z,29.23
2018-10-19T00:18:39.992Z,24.90
2018-10-19T00:21:08.292Z,21.50
2018-10-19T00:23:36.508Z,24.57
2018-10-19T00:26:05.133Z,24.47
2018-10-19T00:28:33.365Z,22.30
2018-10-19T00:31:01.649Z,26.17
2018-10-19T00:33:29.926Z,28.53
2018-10-19T00:35:58.170Z,25.40
2018-10-19T00:38:26.463Z,23.97
2018-10-19T00:40:54.748Z,27.00
2018-10-19T00:43:23.011Z,25.20
2018-10-19T00:45:51.281Z,23.27
2018-10-19T00:48:20.446Z,28.47
2018-10-19T00:50:48.733Z,33.83
2018-10-19T00:53:17.035Z,32.07
2018-10-19T00:55:45.289Z,36.33
2018-10-19T00:58:13.613Z,34.77
2018-10-19T01:00:42.659Z,34.30
2018-10-19T01:03:11.137Z,31.97
2018-10-19T01:05:40.241Z,34.63
2018-10-19T01:08:09.246Z,22.93
2018-10-19T01:10:37.509Z,24.87
2018-10-19T01:13:06.009Z,24.30
2018-10-19T01:15:34.297Z,24.13
2018-10-19T01:18:02.558Z,30.00
2018-10-19T01:20:30.848Z,31.77
2018-10-19T01:22:59.135Z,35.20
2018-10-19T01:25:27.406Z,29.27
2018-10-19T01:27:55.665Z,23.63
2018-10-19T01:30:23.958Z,26.07
2018-10-19T01:32:52.249Z,23.90
2018-10-19T01:35:20.513Z,23.20
2018-10-19T01:37:48.790Z,22.43
2018-10-19T01:40:17.061Z,20.30
2018-10-19T01:42:45.332Z,22.77
2018-10-19T01:45:13.711Z,25.37
2018-10-19T01:47:42.551Z,24.93
2018-10-19T01:50:11.354Z,22.80
2018-10-19T01:52:40.381Z,26.70
2018-10-19T01:55:08.670Z,26.60
2018-10-19T01:57:37.126Z,29.37
2018-10-19T02:00:06.034Z,29.73
2018-10-19T02:02:34.349Z,29.63
2018-10-19T02:05:02.830Z,27.97
2018-10-19T02:07:31.112Z,25.53
2018-10-19T02:09:59.378Z,29.53
2018-10-19T02:12:27.637Z,27.30
2018-10-19T02:14:55.974Z,28.57
2018-10-19T02:17:24.245Z,30.37
2018-10-19T02:19:52.533Z,30.47
2018-10-19T02:22:20.821Z,34.43
2018-10-19T02:24:49.121Z,29.03
2018-10-19T02:27:17.443Z,29.90
2018-10-19T02:29:45.720Z,32.63
2018-10-19T02:32:14.060Z,34.73
2018-10-19T02:34:42.333Z,33.13
2018-10-19T02:37:10.610Z,29.77
2018-10-19T02:39:38.901Z,39.00
2018-10-19T02:42:07.209Z,36.57
2018-10-19T02:44:35.506Z,30.03
2018-10-19T02:47:03.811Z,34.77
2018-10-19T02:49:32.075Z,32.13
2018-10-19T02:52:00.418Z,28.77
2018-10-19T02:54:28.741Z,28.50
2018-10-19T02:56:57.134Z,36.30
2018-10-19T02:59:25.394Z,38.60
2018-10-19T03:01:53.681Z,37.90
2018-10-19T03:04:21.933Z,37.77
2018-10-19T03:06:50.231Z,38.90
2018-10-19T03:09:18.584Z,40.07
2018-10-19T03:11:46.789Z,31.50
2018-10-19T03:14:15.101Z,34.07
2018-10-19T03:16:43.361Z,42.20
2018-10-19T03:19:11.625Z,32.50
2018-10-19T03:21:39.926Z,29.10
2018-10-19T03:24:08.170Z,31.93
2018-10-19T03:26:36.453Z,37.23
2018-10-19T03:29:04.883Z,38.80
2018-10-19T03:31:33.227Z,33.50
2018-10-19T03:34:01.534Z,34.50
2018-10-19T03:36:29.824Z,33.33
2018-10-19T03:38:58.146Z,33.97
2018-10-19T03:41:26.419Z,36.73
2018-10-19T03:43:54.699Z,35.87
2018-10-19T03:46:22.961Z,29.67
2018-10-19T03:48:51.295Z,28.17
2018-10-19T03:51:19.601Z,23.87
2018-10-19T03:53:47.845Z,32.60
2018-10-19T03:56:16.121Z,27.57
2018-10-19T03:58:44.370Z,25.50
2018-10-19T04:01:12.654Z,24.97
2018-10-19T04:03:41.153Z,27.53
2018-10-19T04:06:09.400Z,28.43
2018-10-19T04:08:37.713Z,27.00
2018-10-19T04:11:05.992Z,26.40
2018-10-19T04:13:34.246Z,25.67
2018-10-19T04:16:02.518Z,27.97
2018-10-19T04:18:30.815Z,29.97
2018-10-19T04:20:59.159Z,26.67
2018-10-19T04:23:27.370Z,27.30
2018-10-19T04:25:55.645Z,28.73
2018-10-19T04:28:23.929Z,27.60
2018-10-19T04:30:52.177Z,23.57
2018-10-19T04:33:20.466Z,29.20
2018-10-19T04:35:48.820Z,27.97
2018-10-19T04:38:17.097Z,28.33
2018-10-19T04:40:45.358Z,26.80
2018-10-19T04:43:13.643Z,25.63
2018-10-19T04:45:41.888Z,26.10
2018-10-19T04:48:10.163Z,23.17
2018-10-19T04:50:38.416Z,23.50
2018-10-19T04:53:06.746Z,26.50
2018-10-19T04:55:34.979Z,26.93
2018-10-19T04:58:03.303Z,26.43
2018-10-19T05:00:31.604Z,27.50
2018-10-19T05:02:59.917Z,32.17
2018-10-19T05:05:28.213Z,30.70
2018-10-19T05:07:56.485Z,27.80
2018-10-19T05:10:24.746Z,28.70
2018-10-19T05:12:53.057Z,29.70
2018-10-19T05:15:21.282Z,29.97
2018-10-19T05:17:49.595Z,26.50
2018-10-19T05:20:17.943Z,27.73
2018-10-19T05:22:52.797Z,27.33
2018-10-19T05:25:21.114Z,32.97
2018-10-19T05:27:49.418Z,27.27
2018-10-19T05:30:17.714Z,27.00
2018-10-19T05:32:46.036Z,28.03
2018-10-19T05:35:15.947Z,28.93
2018-10-19T05:37:44.154Z,26.27
2018-10-19T05:40:12.418Z,25.40
2018-10-19T05:42:40.942Z,29.77
2018-10-19T05:45:10.550Z,24.13
2018-10-19T05:47:38.835Z,26.23
2018-10-19T05:50:08.017Z,27.93
2018-10-19T05:52:36.597Z,30.83
2018-10-19T05:55:04.943Z,23.20
2018-10-19T05:57:33.382Z,27.63
2018-10-19T06:00:01.913Z,25.63
2018-10-19T06:02:30.689Z,28.67
2018-10-19T06:04:58.962Z,25.87
2018-10-19T06:07:27.234Z,23.27
2018-10-19T06:09:55.523Z,32.17
2018-10-19T06:12:23.791Z,24.03
2018-10-19T06:14:52.054Z,28.50
2018-10-19T06:17:20.358Z,31.50
2018-10-19T06:19:48.635Z,37.17
2018-10-19T06:22:16.982Z,29.07
2018-10-19T06:24:45.326Z,21.87
2018-10-19T06:27:13.659Z,29.30
2018-10-19T06:29:41.927Z,26.03
2018-10-19T06:32:10.270Z,22.70
2018-10-19T06:34:38.469Z,22.70
2018-10-19T06:37:06.767Z,24.53
2018-10-19T06:39:35.074Z,27.27
2018-10-19T06:42:03.447Z,24.40
2018-10-19T06:44:31.813Z,26.80
2018-10-19T06:47:00.356Z,29.53
2018-10-19T06:49:28.801Z,30.60
2018-10-19T06:51:57.194Z,29.93
2018-10-19T06:54:25.456Z,28.47
2018-10-19T06:56:53.699Z,29.03
2018-10-19T06:59:22.043Z,30.33
2018-10-19T07:01:50.334Z,29.40
2018-10-19T07:04:18.622Z,27.37
2018-10-19T07:06:47.045Z,32.60
2018-10-19T07:09:15.320Z,30.43
2018-10-19T07:11:43.602Z,30.07
2018-10-19T07:14:12.022Z,24.20
2018-10-19T07:16:40.347Z,28.73
2018-10-19T07:19:08.703Z,25.70
2018-10-19T07:21:36.899Z,26.20
2018-10-19T07:24:05.414Z,32.40
2018-10-19T07:26:33.762Z,32.47
2018-10-19T07:29:02.069Z,31.67
2018-10-19T07:31:30.319Z,35.07
2018-10-19T07:33:58.606Z,26.50
2018-10-19T07:36:27.023Z,26.83
2018-10-19T07:38:55.250Z,22.90
2018-10-19T07:41:23.534Z,26.67
2018-10-19T07:43:51.971Z,28.33
2018-10-19T07:46:20.418Z,27.50
2018-10-19T07:48:48.695Z,27.67
2018-10-19T07:51:16.957Z,31.57
2018-10-19T07:53:45.219Z,27.33
2018-10-19T07:56:13.562Z,33.20
2018-10-19T07:58:41.957Z,30.13
2018-10-19T08:01:10.241Z,37.67
2018-10-19T08:03:38.522Z,26.93
2018-10-19T08:06:06.771Z,31.17
2018-10-19T08:08:35.037Z,31.13
2018-10-19T08:11:03.389Z,29.60
2018-10-19T08:13:31.629Z,29.63
2018-10-19T08:15:59.913Z,37.43
2018-10-19T08:18:28.172Z,29.50
2018-10-19T08:20:56.533Z,37.07
2018-10-19T08:23:24.805Z,40.23
2018-10-19T08:25:53.150Z,36.93
2018-10-19T08:28:21.399Z,41.20
2018-10-19T08:30:49.694Z,44.20
2018-10-19T08:33:18.042Z,35.50
2018-10-19T08:35:46.310Z,35.40
2018-10-19T08:38:14.779Z,42.13
2018-10-19T08:40:43.013Z,34.67
2018-10-19T08:43:11.380Z,47.87
2018-10-19T08:45:39.574Z,36.97
2018-10-19T08:48:07.858Z,32.83
2018-10-19T08:50:36.121Z,40.53
2018-10-19T08:53:04.623Z,42.97
2018-10-19T08:55:32.826Z,39.40
2018-10-19T08:58:01.468Z,41.57
2018-10-19T09:00:29.647Z,40.13
2018-10-19T09:02:58.045Z,42.87
2018-10-19T09:05:26.276Z,42.00
2018-10-19T09:07:54.582Z,42.13
2018-10-19T09:10:22.901Z,43.00
2018-10-19T09:12:51.267Z,51.03
2018-10-19T09:15:19.550Z,41.63
2018-10-19T09:17:47.757Z,49.63
2018-10-19T09:20:16.023Z,45.10
2018-10-19T09:22:44.308Z,49.63
2018-10-19T09:25:12.588Z,47.53
2018-10-19T09:27:40.882Z,58.13
2018-10-19T09:30:09.199Z,36.90
2018-10-19T09:32:37.476Z,39.43
2018-10-19T09:35:05.903Z,40.53
2018-10-19T09:37:34.128Z,45.23
2018-10-19T09:40:02.499Z,40.77
2018-10-19T09:42:30.729Z,47.30
2018-10-19T09:44:59.032Z,59.40
2018-10-19T09:47:27.307Z,55.07
2018-10-19T09:49:55.574Z,58.40
2018-10-19T09:52:23.867Z,45.10
2018-10-19T09:54:52.157Z,42.07
2018-10-19T09:57:20.434Z,49.07
2018-10-19T09:59:48.716Z,56.00
2018-10-19T10:02:17.007Z,42.80
2018-10-19T10:04:45.274Z,38.93
2018-10-19T10:07:13.645Z,60.40
2018-10-19T10:09:41.846Z,60.80
2018-10-19T10:12:10.109Z,68.20
2018-10-19T10:14:38.498Z,58.93
2018-10-19T10:17:06.805Z,64.67
2018-10-19T10:19:35.022Z,51.70
2018-10-19T10:22:03.355Z,49.50
2018-10-19T10:24:31.581Z,58.23
2018-10-19T10:26:59.870Z,48.43
2018-10-19T10:29:28.137Z,55.97
2018-10-19T10:31:56.474Z,44.47
2018-10-19T10:34:24.718Z,43.60
2018-10-19T10:36:52.968Z,48.57
2018-10-19T10:39:21.358Z,56.10
2018-10-19T10:41:49.535Z,53.63
2018-10-19T10:44:17.807Z,52.03
2018-10-19T10:46:46.101Z,49.50
2018-10-19T10:49:14.386Z,66.77
2018-10-19T10:51:42.613Z,47.37
2018-10-19T10:54:10.897Z,43.30
2018-10-19T10:56:39.165Z,45.50
2018-10-19T10:59:07.510Z,60.20
2018-10-19T11:01:35.786Z,51.27
2018-10-19T11:04:04.091Z,61.40
2018-10-19T11:06:32.357Z,57.63
2018-10-19T11:09:00.615Z,59.70
2018-10-19T11:11:28.861Z,47.97
2018-10-19T11:13:57.133Z,49.07
2018-10-19T11:16:25.411Z,42.53
2018-10-19T11:18:53.740Z,43.83
2018-10-19T11:21:21.960Z,43.37
2018-10-19T11:23:50.255Z,57.07
2018-10-19T11:26:18.477Z,53.80
2018-10-19T11:28:46.745Z,45.77
2018-10-19T11:31:15.213Z,59.57
2018-10-19T11:33:43.394Z,58.20
2018-10-19T11:36:11.644Z,46.93
2018-10-19T11:38:40.090Z,42.30
2018-10-19T11:41:08.394Z,48.50
2018-10-19T11:43:36.679Z,41.47
2018-10-19T11:46:05.437Z,49.13
2018-10-19T11:48:33.732Z,62.60
2018-10-19T11:51:02.110Z,65.20
2018-10-19T11:53:30.389Z,61.30
2018-10-19T11:55:58.630Z,56.47
2018-10-19T11:58:26.921Z,41.57
2018-10-19T12:00:55.208Z,53.73
2018-10-19T12:03:23.485Z,41.27
2018-10-19T12:05:51.706Z,41.93
2018-10-19T12:08:20.002Z,34.33
2018-10-19T12:10:48.381Z,58.83
2018-10-19T12:13:16.670Z,53.23
2018-10-19T12:15:44.845Z,59.00
2018-10-19T12:18:13.125Z,61.50
2018-10-19T12:20:41.406Z,52.53
2018-10-19T12:23:09.666Z,50.40
2018-10-19T12:25:37.943Z,45.03
2018-10-19T12:28:06.225Z,43.00
2018-10-19T12:30:34.495Z,49.33
2018-10-19T12:33:02.856Z,48.27
2018-10-19T12:35:31.073Z,53.17
2018-10-19T12:37:59.390Z,49.30
2018-10-19T12:40:27.680Z,52.33
2018-10-19T12:42:55.969Z,50.40
2018-10-19T12:46:38.979Z,46.80
2018-10-19T12:49:07.902Z,46.23
2018-10-19T12:51:36.206Z,51.13
2018-10-19T12:54:05.170Z,44.50
2018-10-19T12:56:33.338Z,48.23
2018-10-19T12:59:01.708Z,46.37
2018-10-19T13:01:30.791Z,49.27
2018-10-19T13:03:59.860Z,44.23
2018-10-19T13:06:28.331Z,49.60
2018-10-19T13:08:56.668Z,49.13
2018-10-19T13:11:25.160Z,51.17
2018-10-19T13:13:54.372Z,45.37
2018-10-19T13:16:22.930Z,48.27
2018-10-19T13:18:51.310Z,44.87
2018-10-19T13:21:19.597Z,46.40
2018-10-19T13:23:47.874Z,46.07
2018-10-19T13:26:16.173Z,48.43
2018-10-19T13:28:44.592Z,37.97
2018-10-19T13:31:12.930Z,46.57
2018-10-19T13:33:41.162Z,46.27
2018-10-19T13:36:09.528Z,49.50
2018-10-19T13:38:37.758Z,43.47
2018-10-19T13:41:06.053Z,47.07
2018-10-19T13:43:34.324Z,53.27
2018-10-19T13:46:02.606Z,45.67
2018-10-19T13:48:30.866Z,43.57
2018-10-19T13:50:59.181Z,48.87
2018-10-19T13:53:27.529Z,49.57
2018-10-19T13:55:55.835Z,43.50
2018-10-19T13:58:24.157Z,49.37
2018-10-19T14:00:52.351Z,49.67
2018-10-19T14:03:20.617Z,47.97
2018-10-19T14:05:49.847Z,50.30
2018-10-19T14:08:18.123Z,48.43
2018-10-19T14:10:46.455Z,49.63
2018-10-19T14:13:14.732Z,48.47
2018-10-19T14:15:43.109Z,48.40
2018-10-19T14:18:12.122Z,43.60
2018-10-19T14:20:40.414Z,50.13
2018-10-19T14:23:08.736Z,51.00
2018-10-19T14:25:37.013Z,53.13
2018-10-19T14:28:05.574Z,50.00
2018-10-19T14:30:33.879Z,45.77
2018-10-19T14:33:02.153Z,49.10
2018-10-19T14:35:30.425Z,51.27
2018-10-19T14:37:58.682Z,51.13
2018-10-19T14:40:26.971Z,53.50
2018-10-19T14:42:55.277Z,52.93
2018-10-19T14:45:23.571Z,40.87
2018-10-19T14:47:51.920Z,50.13
2018-10-19T14:50:21.540Z,48.13
2018-10-19T14:52:49.900Z,52.73
2018-10-19T14:55:19.200Z,47.93
2018-10-19T14:57:47.523Z,53.27
2018-10-19T15:00:17.194Z,51.40
2018-10-19T15:02:45.573Z,49.03
2018-10-19T15:05:17.578Z,49.57
2018-10-19T15:07:45.837Z,48.33
2018-10-19T15:10:16.283Z,48.67
2018-10-19T15:12:44.634Z,48.03
2018-10-19T15:15:15.098Z,54.60
2018-10-19T15:17:47.769Z,51.83
2018-10-19T15:20:16.558Z,48.07
2018-10-19T15:22:45.261Z,52.63
2018-10-19T15:25:13.555Z,54.53
2018-10-19T15:27:43.213Z,53.83
2018-10-19T15:30:13.051Z,51.23
2018-10-19T15:32:42.137Z,44.60
2018-10-19T15:35:10.654Z,45.20
2018-10-19T15:37:39.213Z,51.07
2018-10-19T15:40:08.334Z,45.07
2018-10-19T15:42:36.653Z,48.03
2018-10-19T15:45:06.277Z,39.60
2018-10-19T15:47:34.437Z,48.53
2018-10-19T15:50:02.745Z,48.73
2018-10-19T15:52:31.002Z,47.07
2018-10-19T15:54:59.280Z,42.70
2018-10-19T15:57:27.632Z,42.00
2018-10-19T15:59:55.947Z,44.53
2018-10-19T16:02:24.244Z,47.07
2018-10-19T16:04:52.519Z,42.37
2018-10-19T16:07:20.822Z,43.63
2018-10-19T16:09:49.225Z,39.00
2018-10-19T16:12:17.523Z,39.43
2018-10-19T16:14:45.822Z,42.33
2018-10-19T16:17:14.143Z,38.67
2018-10-19T16:19:42.784Z,39.93
2018-10-19T16:22:11.065Z,42.83
2018-10-19T16:24:40.333Z,38.10
2018-10-19T16:27:08.684Z,38.27
2018-10-19T16:29:36.861Z,39.53
2018-10-19T16:32:05.589Z,46.63
2018-10-19T16:34:33.949Z,52.87
2018-10-19T16:37:02.157Z,36.30
2018-10-19T16:39:30.511Z,44.03
2018-10-19T16:41:58.783Z,41.60
2018-10-19T16:44:27.082Z,43.00
2018-10-19T16:46:55.427Z,48.80
2018-10-19T16:49:23.796Z,46.03
2018-10-19T16:51:52.072Z,47.20
2018-10-19T16:54:20.337Z,46.87
2018-10-19T16:56:48.636Z,43.77
2018-10-19T16:59:16.887Z,49.67
2018-10-19T17:01:45.168Z,49.23
2018-10-19T17:04:13.496Z,44.50
2018-10-19T17:06:41.740Z,46.47
2018-10-19T17:09:11.364Z,42.73
2018-10-19T17:11:40.062Z,40.67
2018-10-19T17:14:14.998Z,47.83
2018-10-19T17:16:43.257Z,46.13
2018-10-19T17:19:11.572Z,46.10
2018-10-19T17:21:39.793Z,50.27
2018-10-19T17:24:08.125Z,45.00
2018-10-19T17:26:36.373Z,39.13
2018-10-19T17:29:04.952Z,39.43
2018-10-19T17:31:33.231Z,38.10
2018-10-19T17:34:01.466Z,39.73
2018-10-19T17:36:29.734Z,48.30
2018-10-19T17:38:58.017Z,44.40
2018-10-19T17:41:26.330Z,44.87
2018-10-19T17:43:54.788Z,50.33
2018-10-19T17:46:23.117Z,56.23
2018-10-19T17:48:51.770Z,54.07
2018-10-19T17:51:20.038Z,55.77
2018-10-19T17:53:48.393Z,56.30
2018-10-19T17:56:16.613Z,51.53
2018-10-19T17:58:44.883Z,52.03
2018-10-19T18:01:13.197Z,49.70
2018-10-19T18:03:41.478Z,48.90
2018-10-19T18:06:09.787Z,45.67
2018-10-19T18:08:38.106Z,47.80
2018-10-19T18:11:07.178Z,46.57
2018-10-19T18:13:35.615Z,43.77
2018-10-19T18:16:03.975Z,41.30
2018-10-19T18:18:32.199Z,44.43
2018-10-19T18:21:00.782Z,41.70
2018-10-19T18:23:29.126Z,45.10
2018-10-19T18:25:57.377Z,40.73
2018-10-19T18:28:25.969Z,42.63
2018-10-19T18:30:54.277Z,47.00
2018-10-19T18:33:22.666Z,43.50
2018-10-19T18:35:51.017Z,41.33
2018-10-19T18:38:19.279Z,42.67
2018-10-19T18:40:47.566Z,48.80
2018-10-19T18:43:15.832Z,46.67
2018-10-19T18:45:44.101Z,47.40
2018-10-19T18:48:12.390Z,39.43
2018-10-19T18:50:40.739Z,48.60
2018-10-19T18:53:09.023Z,46.57
2018-10-19T18:55:37.183Z,41.17
2018-10-19T18:58:05.490Z,46.33
2018-10-19T19:00:33.760Z,40.83
2018-10-19T19:03:02.043Z,40.20
2018-10-19T19:05:30.322Z,43.67
2018-10-19T19:07:58.592Z,39.47
2018-10-19T19:10:26.844Z,39.57
2018-10-19T19:13:00.480Z,36.57
2018-10-19T19:15:28.740Z,39.77
2018-10-19T19:17:57.014Z,33.67
2018-10-19T19:20:28.615Z,33.43
2018-10-19T19:22:56.952Z,41.87
2018-10-19T19:26:30.885Z,35.83
2018-10-19T19:28:59.368Z,42.30
2018-10-19T19:31:27.717Z,42.90
2018-10-19T19:34:01.398Z,40.50
2018-10-19T19:36:29.716Z,41.10
2018-10-19T19:38:57.981Z,43.50
2018-10-19T19:41:31.610Z,40.83
2018-10-19T19:43:59.935Z,43.30
2018-10-19T19:46:28.181Z,39.10
2018-10-19T19:49:01.961Z,42.63
2018-10-19T19:51:30.474Z,41.33
2018-10-19T19:53:58.761Z,33.40
2018-10-19T19:56:27.098Z,41.57
2018-10-19T19:58:55.440Z,34.10
2018-10-19T20:01:23.897Z,39.90
2018-10-19T20:03:52.321Z,39.43
2018-10-19T20:06:20.675Z,34.30
2018-10-19T20:08:48.870Z,38.00
2018-10-19T20:11:17.122Z,50.17
2018-10-19T20:13:45.378Z,46.37
2018-10-19T20:16:13.662Z,49.33
2018-10-19T20:18:41.922Z,45.30
2018-10-19T20:21:10.341Z,45.70
2018-10-19T20:23:38.730Z,44.87
2018-10-19T20:26:07.141Z,43.57
2018-10-19T20:28:35.391Z,41.27
2018-10-19T20:31:03.653Z,41.10
2018-10-19T20:33:31.971Z,33.80
2018-10-19T20:36:00.330Z,38.67
2018-10-19T20:38:28.662Z,38.83
2018-10-19T20:40:56.954Z,39.37
2018-10-19T20:43:25.133Z,44.40
2018-10-19T20:45:53.397Z,38.93
2018-10-19T20:48:21.850Z,36.47
2018-10-19T20:50:50.169Z,44.33
2018-10-19T20:53:18.423Z,39.73
2018-10-19T20:55:46.686Z,34.70
2018-10-19T20:58:14.962Z,40.87
2018-10-19T21:00:43.303Z,39.93
2018-10-19T21:03:11.496Z,43.60
2018-10-19T21:05:39.761Z,43.03
2018-10-19T21:08:08.081Z,39.40
2018-10-19T21:10:36.326Z,41.27
2018-10-19T21:13:04.650Z,41.63
2018-10-19T21:15:32.901Z,38.33
2018-10-19T21:18:01.178Z,37.50
2018-10-19T21:20:29.438Z,39.80
2018-10-19T21:22:57.738Z,37.07
2018-10-19T21:25:25.952Z,36.37
2018-10-19T21:27:54.284Z,46.13
2018-10-19T21:30:22.534Z,44.70
2018-10-19T21:32:50.781Z,43.17
2018-10-19T21:35:19.052Z,40.77
2018-10-19T21:37:47.374Z,42.80
2018-10-19T21:40:15.692Z,44.23
2018-10-19T21:42:44.019Z,45.20
2018-10-19T21:45:12.291Z,40.93
2018-10-19T21:47:40.537Z,42.07
2018-10-19T21:50:09.564Z,42.80
2018-10-19T21:52:37.809Z,42.33
2018-10-19T21:55:06.889Z,41.73
2018-10-19T21:57:35.183Z,42.87
2018-10-19T22:00:03.512Z,43.07
2018-10-19T22:02:31.769Z,41.20
2018-10-19T22:05:00.059Z,42.13
2018-10-19T22:07:28.333Z,37.83
2018-10-19T22:09:56.562Z,41.17
2018-10-19T22:12:24.809Z,41.97
2018-10-19T22:14:53.130Z,44.93
2018-10-19T22:17:21.381Z,38.37
2018-10-19T22:19:49.637Z,35.53
2018-10-19T22:22:17.926Z,39.40
2018-10-19T22:24:46.214Z,40.00
2018-10-19T22:27:14.458Z,43.57
2018-10-19T22:29:42.732Z,42.17
2018-10-19T22:32:11.082Z,40.73
2018-10-19T22:34:39.378Z,38.37
2018-10-19T22:37:07.656Z,37.93
2018-10-19T22:39:35.917Z,38.40
2018-10-19T22:42:04.192Z,45.67
2018-10-19T22:44:32.618Z,47.13
2018-10-19T22:47:00.913Z,50.73
2018-10-19T22:49:29.165Z,46.27
2018-10-19T22:51:57.460Z,43.43
2018-10-19T22:54:25.728Z,47.60
2018-10-19T22:56:54.006Z,44.03
2018-10-19T22:59:22.295Z,41.50
2018-10-19T23:01:50.587Z,46.50
2018-10-19T23:04:18.863Z,45.33
2018-10-19T23:06:47.262Z,42.10
2018-10-19T23:09:15.524Z,42.40
2018-10-19T23:11:43.773Z,39.93
2018-10-19T23:14:12.066Z,43.67
2018-10-19T23:16:40.371Z,44.80
2018-10-19T23:19:08.704Z,44.50
2018-10-19T23:21:37.027Z,38.77
2018-10-19T23:24:05.831Z,37.87
2018-10-19T23:26:34.199Z,40.93
2018-10-19T23:29:02.530Z,42.80
2018-10-19T23:31:30.937Z,40.83
2018-10-19T23:33:59.126Z,41.00
2018-10-19T23:36:27.408Z,46.07
2018-10-19T23:38:55.690Z,42.37
2018-10-19T23:41:23.951Z,42.53
2018-10-19T23:43:52.314Z,37.87
2018-10-19T23:46:20.537Z,39.47
2018-10-19T23:48:48.793Z,41.20
2018-10-19T23:51:17.138Z,42.30
2018-10-19T23:53:45.415Z,42.87
2018-10-19T23:56:13.661Z,40.60
2018-10-19T23:58:41.950Z,42.13
